sensor_id;sensor_type;location;lat;lon;timestamp;pressure;altitude;pressure_sealevel;temperature;humidity
43071;BME280;36278;47.952;21.714;2023-05-10T00:01:05;100770.28;;;10.70;56.94
43071;BME280;36278;47.952;21.714;2023-05-10T00:03:30;100774.31;;;10.76;56.90
43071;BME280;36278;47.952;21.714;2023-05-10T00:05:56;100772.06;;;10.70;57.22
43071;BME280;36278;47.952;21.714;2023-05-10T00:08:22;100771.84;;;10.73;57.17
43071;BME280;36278;47.952;21.714;2023-05-10T00:10:48;100775.78;;;10.80;56.72
43071;BME280;36278;47.952;21.714;2023-05-10T00:13:13;100768.47;;;10.71;56.86
43071;BME280;36278;47.952;21.714;2023-05-10T00:15:39;100768.38;;;10.72;57.05
43071;BME280;36278;47.952;21.714;2023-05-10T00:18:04;100766.91;;;10.68;56.97
43071;BME280;36278;47.952;21.714;2023-05-10T00:20:30;100764.22;;;10.81;56.81
43071;BME280;36278;47.952;21.714;2023-05-10T00:22:55;100761.16;;;10.74;57.12
43071;BME280;36278;47.952;21.714;2023-05-10T00:25:21;100762.22;;;10.72;57.25
43071;BME280;36278;47.952;21.714;2023-05-10T00:27:49;100760.53;;;10.71;57.12
43071;BME280;36278;47.952;21.714;2023-05-10T00:30:15;100759.47;;;10.60;57.85
43071;BME280;36278;47.952;21.714;2023-05-10T00:32:40;100758.28;;;10.64;57.86
43071;BME280;36278;47.952;21.714;2023-05-10T00:35:06;100750.13;;;10.55;57.66
43071;BME280;36278;47.952;21.714;2023-05-10T00:37:32;100757.22;;;10.54;57.77
43071;BME280;36278;47.952;21.714;2023-05-10T00:39:57;100751.38;;;10.49;57.72
43071;BME280;36278;47.952;21.714;2023-05-10T00:42:22;100757.00;;;10.57;57.82
43071;BME280;36278;47.952;21.714;2023-05-10T00:44:48;100747.78;;;10.50;57.61
43071;BME280;36278;47.952;21.714;2023-05-10T00:47:13;100751.19;;;10.52;57.89
43071;BME280;36278;47.952;21.714;2023-05-10T00:49:40;100746.84;;;10.38;58.13
43071;BME280;36278;47.952;21.714;2023-05-10T00:52:06;100746.22;;;10.48;58.04
43071;BME280;36278;47.952;21.714;2023-05-10T00:54:31;100754.88;;;10.37;58.50
43071;BME280;36278;47.952;21.714;2023-05-10T00:56:57;100749.59;;;10.37;58.46
43071;BME280;36278;47.952;21.714;2023-05-10T00:59:23;100753.06;;;10.25;58.94
43071;BME280;36278;47.952;21.714;2023-05-10T01:01:49;100740.41;;;10.16;58.83
43071;BME280;36278;47.952;21.714;2023-05-10T01:04:15;100743.84;;;10.30;58.60
43071;BME280;36278;47.952;21.714;2023-05-10T01:06:41;100747.47;;;10.29;58.69
43071;BME280;36278;47.952;21.714;2023-05-10T01:09:07;100745.22;;;10.23;59.22
43071;BME280;36278;47.952;21.714;2023-05-10T01:11:34;100750.50;;;10.23;58.99
43071;BME280;36278;47.952;21.714;2023-05-10T01:14:00;100760.97;;;10.12;59.55
43071;BME280;36278;47.952;21.714;2023-05-10T01:16:29;100757.03;;;10.18;59.01
43071;BME280;36278;47.952;21.714;2023-05-10T01:18:57;100751.00;;;10.16;59.14
43071;BME280;36278;47.952;21.714;2023-05-10T01:21:42;100755.84;;;10.09;59.67
43071;BME280;36278;47.952;21.714;2023-05-10T01:24:12;100755.50;;;10.01;59.58
43071;BME280;36278;47.952;21.714;2023-05-10T01:32:40;100748.50;;;9.87;60.32
43071;BME280;36278;47.952;21.714;2023-05-10T01:35:30;100751.94;;;10.02;59.98
43071;BME280;36278;47.952;21.714;2023-05-10T01:38:14;100739.22;;;9.94;59.99
43071;BME280;36278;47.952;21.714;2023-05-10T01:46:27;100740.00;;;9.82;60.70
43071;BME280;36278;47.952;21.714;2023-05-10T01:48:57;100739.06;;;9.83;60.72
43071;BME280;36278;47.952;21.714;2023-05-10T01:51:25;100739.53;;;9.63;61.59
43071;BME280;36278;47.952;21.714;2023-05-10T01:53:54;100737.69;;;9.77;60.81
43071;BME280;36278;47.952;21.714;2023-05-10T01:56:26;100736.66;;;9.66;61.13
43071;BME280;36278;47.952;21.714;2023-05-10T01:58:54;100734.13;;;9.64;61.79
43071;BME280;36278;47.952;21.714;2023-05-10T02:01:21;100731.38;;;9.66;61.32
43071;BME280;36278;47.952;21.714;2023-05-10T02:03:47;100717.66;;;9.46;61.61
43071;BME280;36278;47.952;21.714;2023-05-10T02:06:16;100729.13;;;9.60;61.55
43071;BME280;36278;47.952;21.714;2023-05-10T02:08:45;100728.69;;;9.53;61.84
43071;BME280;36278;47.952;21.714;2023-05-10T02:11:13;100725.84;;;9.56;61.50
43071;BME280;36278;47.952;21.714;2023-05-10T02:13:39;100723.41;;;9.53;62.00
43071;BME280;36278;47.952;21.714;2023-05-10T02:16:06;100717.66;;;9.46;61.99
43071;BME280;36278;47.952;21.714;2023-05-10T02:18:33;100720.78;;;9.39;62.63
43071;BME280;36278;47.952;21.714;2023-05-10T02:21:02;100721.25;;;9.45;62.05
43071;BME280;36278;47.952;21.714;2023-05-10T02:23:28;100716.34;;;9.39;62.52
43071;BME280;36278;47.952;21.714;2023-05-10T02:25:55;100717.41;;;9.37;62.14
43071;BME280;36278;47.952;21.714;2023-05-10T02:28:23;100720.06;;;9.37;62.60
43071;BME280;36278;47.952;21.714;2023-05-10T02:30:51;100726.00;;;9.26;62.76
43071;BME280;36278;47.952;21.714;2023-05-10T02:33:17;100726.50;;;9.18;63.25
43071;BME280;36278;47.952;21.714;2023-05-10T02:35:45;100719.25;;;9.08;63.49
43071;BME280;36278;47.952;21.714;2023-05-10T02:38:13;100727.19;;;9.08;64.06
43071;BME280;36278;47.952;21.714;2023-05-10T02:40:41;100724.16;;;8.99;64.05
43071;BME280;36278;47.952;21.714;2023-05-10T02:43:09;100723.13;;;9.02;64.08
43071;BME280;36278;47.952;21.714;2023-05-10T02:45:36;100727.75;;;9.13;64.04
43071;BME280;36278;47.952;21.714;2023-05-10T02:48:04;100717.72;;;9.04;64.48
43071;BME280;36278;47.952;21.714;2023-05-10T02:50:32;100723.91;;;9.04;64.58
43071;BME280;36278;47.952;21.714;2023-05-10T02:53:05;100716.97;;;9.02;64.57
43071;BME280;36278;47.952;21.714;2023-05-10T02:55:39;100717.28;;;8.83;65.55
43071;BME280;36278;47.952;21.714;2023-05-10T02:58:05;100712.75;;;8.85;65.38
43071;BME280;36278;47.952;21.714;2023-05-10T03:00:31;100717.94;;;8.86;65.62
43071;BME280;36278;47.952;21.714;2023-05-10T03:02:56;100720.41;;;8.75;65.97
43071;BME280;36278;47.952;21.714;2023-05-10T03:05:22;100713.59;;;8.71;66.07
43071;BME280;36278;47.952;21.714;2023-05-10T03:07:48;100722.94;;;8.77;66.56
43071;BME280;36278;47.952;21.714;2023-05-10T03:10:13;100720.41;;;8.75;66.20
43071;BME280;36278;47.952;21.714;2023-05-10T03:17:55;100724.38;;;8.82;66.80
43071;BME280;36278;47.952;21.714;2023-05-10T03:20:29;100726.28;;;8.80;66.82
43071;BME280;36278;47.952;21.714;2023-05-10T03:23:04;100723.06;;;8.89;66.79
43071;BME280;36278;47.952;21.714;2023-05-10T03:25:31;100719.34;;;8.92;67.15
43071;BME280;36278;47.952;21.714;2023-05-10T03:27:57;100721.06;;;8.79;67.31
43071;BME280;36278;47.952;21.714;2023-05-10T03:30:25;100720.78;;;8.83;67.67
43071;BME280;36278;47.952;21.714;2023-05-10T03:32:50;100721.63;;;8.98;66.63
43071;BME280;36278;47.952;21.714;2023-05-10T03:35:17;100714.25;;;9.03;66.86
43071;BME280;36278;47.952;21.714;2023-05-10T03:37:43;100716.13;;;9.01;67.29
43071;BME280;36278;47.952;21.714;2023-05-10T03:40:08;100714.34;;;9.02;67.22
43071;BME280;36278;47.952;21.714;2023-05-10T03:42:34;100714.44;;;9.14;67.00
43071;BME280;36278;47.952;21.714;2023-05-10T03:45:00;100706.03;;;9.22;66.07
43071;BME280;36278;47.952;21.714;2023-05-10T03:47:25;100716.16;;;9.42;65.94
43071;BME280;36278;47.952;21.714;2023-05-10T03:49:51;100716.25;;;9.41;66.06
43071;BME280;36278;47.952;21.714;2023-05-10T03:52:16;100715.97;;;9.45;66.51
43071;BME280;36278;47.952;21.714;2023-05-10T03:54:43;100709.41;;;9.51;66.03
43071;BME280;36278;47.952;21.714;2023-05-10T03:57:08;100721.03;;;9.48;66.13
43071;BME280;36278;47.952;21.714;2023-05-10T03:59:34;100715.16;;;9.58;65.87
43071;BME280;36278;47.952;21.714;2023-05-10T04:02:00;100716.84;;;9.59;66.14
43071;BME280;36278;47.952;21.714;2023-05-10T04:04:26;100717.16;;;9.54;66.35
43071;BME280;36278;47.952;21.714;2023-05-10T04:06:51;100716.00;;;9.58;65.58
43071;BME280;36278;47.952;21.714;2023-05-10T04:09:16;100716.06;;;9.71;65.43
43071;BME280;36278;47.952;21.714;2023-05-10T04:11:42;100715.72;;;9.63;66.05
43071;BME280;36278;47.952;21.714;2023-05-10T04:14:08;100719.50;;;9.59;66.12
43071;BME280;36278;47.952;21.714;2023-05-10T04:16:34;100719.38;;;9.60;66.18
43071;BME280;36278;47.952;21.714;2023-05-10T04:18:59;100718.88;;;9.68;65.94
43071;BME280;36278;47.952;21.714;2023-05-10T04:21:25;100724.63;;;9.74;66.51
43071;BME280;36278;47.952;21.714;2023-05-10T04:23:51;100728.47;;;9.83;66.06
43071;BME280;36278;47.952;21.714;2023-05-10T04:26:16;100734.84;;;9.93;65.91
43071;BME280;36278;47.952;21.714;2023-05-10T04:28:41;100731.69;;;10.01;65.26
43071;BME280;36278;47.952;21.714;2023-05-10T04:31:09;100725.03;;;10.08;65.07
43071;BME280;36278;47.952;21.714;2023-05-10T04:33:35;100728.97;;;10.15;65.09
43071;BME280;36278;47.952;21.714;2023-05-10T04:36:01;100734.81;;;10.20;65.00
43071;BME280;36278;47.952;21.714;2023-05-10T04:38:27;100736.31;;;10.24;64.72
43071;BME280;36278;47.952;21.714;2023-05-10T04:40:53;100725.94;;;10.34;63.76
43071;BME280;36278;47.952;21.714;2023-05-10T04:43:18;100723.75;;;10.28;65.25
43071;BME280;36278;47.952;21.714;2023-05-10T04:45:44;100728.38;;;10.24;65.08
43071;BME280;36278;47.952;21.714;2023-05-10T04:48:09;100728.72;;;10.32;64.65
43071;BME280;36278;47.952;21.714;2023-05-10T04:50:35;100732.53;;;10.28;64.91
43071;BME280;36278;47.952;21.714;2023-05-10T04:53:00;100724.47;;;10.30;64.75
43071;BME280;36278;47.952;21.714;2023-05-10T04:55:26;100727.78;;;10.46;64.65
43071;BME280;36278;47.952;21.714;2023-05-10T04:57:52;100724.16;;;10.47;64.62
43071;BME280;36278;47.952;21.714;2023-05-10T05:00:20;100729.56;;;10.58;64.67
43071;BME280;36278;47.952;21.714;2023-05-10T05:02:45;100730.00;;;10.65;64.54
43071;BME280;36278;47.952;21.714;2023-05-10T05:05:12;100720.03;;;10.69;64.38
43071;BME280;36278;47.952;21.714;2023-05-10T05:07:37;100727.03;;;10.70;64.85
43071;BME280;36278;47.952;21.714;2023-05-10T05:10:07;100733.59;;;10.77;65.16
43071;BME280;36278;47.952;21.714;2023-05-10T05:12:33;100735.41;;;10.76;66.56
43071;BME280;36278;47.952;21.714;2023-05-10T05:14:58;100727.34;;;10.78;66.97
43071;BME280;36278;47.952;21.714;2023-05-10T05:17:24;100726.81;;;10.73;67.92
43071;BME280;36278;47.952;21.714;2023-05-10T05:19:49;100723.44;;;10.83;67.58
43071;BME280;36278;47.952;21.714;2023-05-10T05:22:15;100734.34;;;10.79;68.22
43071;BME280;36278;47.952;21.714;2023-05-10T05:24:40;100722.91;;;10.78;69.59
43071;BME280;36278;47.952;21.714;2023-05-10T05:27:06;100723.63;;;10.80;70.40
43071;BME280;36278;47.952;21.714;2023-05-10T05:29:32;100722.56;;;10.83;70.91
43071;BME280;36278;47.952;21.714;2023-05-10T05:31:57;100731.28;;;10.85;71.44
43071;BME280;36278;47.952;21.714;2023-05-10T05:34:23;100737.00;;;10.91;70.11
43071;BME280;36278;47.952;21.714;2023-05-10T05:36:49;100726.28;;;10.93;69.99
43071;BME280;36278;47.952;21.714;2023-05-10T05:39:15;100741.31;;;11.05;69.09
43071;BME280;36278;47.952;21.714;2023-05-10T05:41:40;100739.72;;;11.03;69.07
43071;BME280;36278;47.952;21.714;2023-05-10T05:44:06;100740.56;;;11.03;69.20
43071;BME280;36278;47.952;21.714;2023-05-10T05:46:31;100744.78;;;11.06;68.78
43071;BME280;36278;47.952;21.714;2023-05-10T05:48:56;100743.75;;;11.08;68.53
43071;BME280;36278;47.952;21.714;2023-05-10T05:51:22;100747.03;;;11.12;68.20
43071;BME280;36278;47.952;21.714;2023-05-10T05:53:47;100745.84;;;11.16;68.17
43071;BME280;36278;47.952;21.714;2023-05-10T05:56:13;100742.56;;;11.12;68.44
43071;BME280;36278;47.952;21.714;2023-05-10T05:58:39;100748.06;;;11.22;68.14
43071;BME280;36278;47.952;21.714;2023-05-10T06:01:05;100754.84;;;11.13;68.70
43071;BME280;36278;47.952;21.714;2023-05-10T06:03:36;100750.19;;;11.17;69.04
43071;BME280;36278;47.952;21.714;2023-05-10T06:06:01;100753.16;;;11.12;71.90
43071;BME280;36278;47.952;21.714;2023-05-10T06:08:27;100750.50;;;11.12;74.05
43071;BME280;36278;47.952;21.714;2023-05-10T06:10:52;100756.28;;;10.93;78.47
43071;BME280;36278;47.952;21.714;2023-05-10T06:13:18;100760.84;;;10.91;76.45
43071;BME280;36278;47.952;21.714;2023-05-10T06:15:44;100753.31;;;10.85;77.89
43071;BME280;36278;47.952;21.714;2023-05-10T06:18:09;100753.63;;;10.81;78.94
43071;BME280;36278;47.952;21.714;2023-05-10T06:20:34;100757.75;;;10.72;82.66
43071;BME280;36278;47.952;21.714;2023-05-10T06:23:00;100750.34;;;10.64;84.06
43071;BME280;36278;47.952;21.714;2023-05-10T06:25:26;100746.97;;;10.62;86.63
43071;BME280;36278;47.952;21.714;2023-05-10T06:27:51;100754.16;;;10.60;87.13
43071;BME280;36278;47.952;21.714;2023-05-10T06:30:22;100746.41;;;10.57;88.09
43071;BME280;36278;47.952;21.714;2023-05-10T06:32:52;100746.66;;;10.67;89.32
43071;BME280;36278;47.952;21.714;2023-05-10T06:35:17;100751.00;;;10.68;87.21
43071;BME280;36278;47.952;21.714;2023-05-10T06:37:43;100753.13;;;10.76;86.56
43071;BME280;36278;47.952;21.714;2023-05-10T06:40:09;100751.81;;;10.81;88.68
43071;BME280;36278;47.952;21.714;2023-05-10T06:42:35;100754.66;;;10.91;86.70
43071;BME280;36278;47.952;21.714;2023-05-10T06:45:00;100746.53;;;10.94;85.81
43071;BME280;36278;47.952;21.714;2023-05-10T06:47:26;100743.03;;;10.93;87.78
43071;BME280;36278;47.952;21.714;2023-05-10T06:49:52;100750.63;;;11.11;85.60
43071;BME280;36278;47.952;21.714;2023-05-10T06:52:17;100743.09;;;11.17;83.76
43071;BME280;36278;47.952;21.714;2023-05-10T06:54:42;100752.31;;;11.25;84.74
43071;BME280;36278;47.952;21.714;2023-05-10T06:57:08;100746.03;;;11.26;86.11
43071;BME280;36278;47.952;21.714;2023-05-10T06:59:33;100742.72;;;11.35;85.88
43071;BME280;36278;47.952;21.714;2023-05-10T07:01:59;100750.44;;;11.38;84.40
43071;BME280;36278;47.952;21.714;2023-05-10T07:04:25;100748.09;;;11.46;82.79
43071;BME280;36278;47.952;21.714;2023-05-10T07:06:51;100749.47;;;11.51;80.94
43071;BME280;36278;47.952;21.714;2023-05-10T07:09:16;100760.00;;;11.64;82.89
43071;BME280;36278;47.952;21.714;2023-05-10T07:11:42;100747.50;;;11.66;76.96
43071;BME280;36278;47.952;21.714;2023-05-10T07:14:07;100760.41;;;11.84;74.26
43071;BME280;36278;47.952;21.714;2023-05-10T07:16:33;100764.19;;;11.92;77.70
43071;BME280;36278;47.952;21.714;2023-05-10T07:18:58;100763.50;;;12.01;74.92
43071;BME280;36278;47.952;21.714;2023-05-10T07:21:24;100754.00;;;12.10;76.07
43071;BME280;36278;47.952;21.714;2023-05-10T07:23:50;100757.28;;;12.14;74.08
43071;BME280;36278;47.952;21.714;2023-05-10T07:26:15;100754.03;;;12.21;75.44
43071;BME280;36278;47.952;21.714;2023-05-10T07:28:41;100753.44;;;12.29;72.75
43071;BME280;36278;47.952;21.714;2023-05-10T07:31:07;100759.16;;;12.35;74.67
43071;BME280;36278;47.952;21.714;2023-05-10T07:33:32;100755.53;;;12.37;71.46
43071;BME280;36278;47.952;21.714;2023-05-10T07:35:58;100758.34;;;12.57;69.87
43071;BME280;36278;47.952;21.714;2023-05-10T07:38:23;100753.06;;;12.69;67.72
43071;BME280;36278;47.952;21.714;2023-05-10T07:40:49;100755.63;;;12.81;70.75
43071;BME280;36278;47.952;21.714;2023-05-10T07:43:14;100749.81;;;12.87;68.53
43071;BME280;36278;47.952;21.714;2023-05-10T07:45:39;100750.78;;;13.09;67.97
43071;BME280;36278;47.952;21.714;2023-05-10T07:48:05;100758.03;;;13.18;67.98
43071;BME280;36278;47.952;21.714;2023-05-10T07:50:31;100744.28;;;13.24;65.71
43071;BME280;36278;47.952;21.714;2023-05-10T07:52:56;100753.19;;;13.45;63.64
43071;BME280;36278;47.952;21.714;2023-05-10T07:55:22;100746.50;;;13.51;63.96
43071;BME280;36278;47.952;21.714;2023-05-10T07:57:47;100751.56;;;13.65;64.76
43071;BME280;36278;47.952;21.714;2023-05-10T08:00:17;100753.09;;;13.79;66.90
43071;BME280;36278;47.952;21.714;2023-05-10T08:02:43;100760.38;;;13.77;64.17
43071;BME280;36278;47.952;21.714;2023-05-10T08:05:08;100754.25;;;13.97;61.98
43071;BME280;36278;47.952;21.714;2023-05-10T08:07:34;100757.06;;;14.17;61.07
43071;BME280;36278;47.952;21.714;2023-05-10T08:10:00;100757.25;;;14.25;61.58
43071;BME280;36278;47.952;21.714;2023-05-10T08:12:26;100753.53;;;14.48;59.77
43071;BME280;36278;47.952;21.714;2023-05-10T08:14:52;100755.50;;;14.46;61.10
43071;BME280;36278;47.952;21.714;2023-05-10T08:17:18;100757.41;;;14.65;59.95
43071;BME280;36278;47.952;21.714;2023-05-10T08:19:43;100747.25;;;14.80;59.13
43071;BME280;36278;47.952;21.714;2023-05-10T08:22:09;100751.13;;;14.97;58.25
43071;BME280;36278;47.952;21.714;2023-05-10T08:24:35;100745.94;;;14.95;57.41
43071;BME280;36278;47.952;21.714;2023-05-10T08:27:04;100744.72;;;15.09;58.10
43071;BME280;36278;47.952;21.714;2023-05-10T08:29:30;100750.63;;;15.12;56.80
43071;BME280;36278;47.952;21.714;2023-05-10T08:31:56;100750.22;;;15.07;56.13
43071;BME280;36278;47.952;21.714;2023-05-10T08:34:21;100750.94;;;15.19;55.46
43071;BME280;36278;47.952;21.714;2023-05-10T08:36:47;100742.13;;;15.38;57.43
43071;BME280;36278;47.952;21.714;2023-05-10T08:39:12;100747.19;;;15.81;55.40
43071;BME280;36278;47.952;21.714;2023-05-10T08:41:39;100748.63;;;16.05;51.85
43071;BME280;36278;47.952;21.714;2023-05-10T08:44:07;100750.00;;;16.09;52.95
43071;BME280;36278;47.952;21.714;2023-05-10T08:46:34;100753.22;;;15.83;52.14
43071;BME280;36278;47.952;21.714;2023-05-10T08:49:03;100750.00;;;15.89;52.89
43071;BME280;36278;47.952;21.714;2023-05-10T08:51:32;100739.88;;;15.93;52.94
43071;BME280;36278;47.952;21.714;2023-05-10T08:54:01;100741.13;;;16.27;52.26
43071;BME280;36278;47.952;21.714;2023-05-10T08:56:27;100737.00;;;16.52;51.32
43071;BME280;36278;47.952;21.714;2023-05-10T08:58:53;100730.34;;;16.66;48.28
43071;BME280;36278;47.952;21.714;2023-05-10T09:01:19;100729.81;;;16.53;49.85
43071;BME280;36278;47.952;21.714;2023-05-10T09:03:46;100728.84;;;16.54;50.56
43071;BME280;36278;47.952;21.714;2023-05-10T09:06:13;100722.09;;;16.50;50.40
43071;BME280;36278;47.952;21.714;2023-05-10T09:08:40;100730.94;;;16.70;50.95
43071;BME280;36278;47.952;21.714;2023-05-10T09:11:07;100730.91;;;16.79;50.75
43071;BME280;36278;47.952;21.714;2023-05-10T09:13:35;100724.00;;;16.87;49.55
43071;BME280;36278;47.952;21.714;2023-05-10T09:16:01;100720.19;;;17.17;48.49
43071;BME280;36278;47.952;21.714;2023-05-10T09:18:26;100719.88;;;17.65;44.78
43071;BME280;36278;47.952;21.714;2023-05-10T09:20:52;100717.63;;;18.06;44.04
43071;BME280;36278;47.952;21.714;2023-05-10T09:23:17;100712.34;;;17.96;45.15
43071;BME280;36278;47.952;21.714;2023-05-10T09:25:43;100719.47;;;17.87;45.03
43071;BME280;36278;47.952;21.714;2023-05-10T09:28:09;100712.72;;;17.83;44.14
43071;BME280;36278;47.952;21.714;2023-05-10T09:30:35;100706.03;;;17.70;43.47
43071;BME280;36278;47.952;21.714;2023-05-10T09:33:01;100696.31;;;17.69;41.48
43071;BME280;36278;47.952;21.714;2023-05-10T09:35:28;100706.84;;;17.80;41.89
43071;BME280;36278;47.952;21.714;2023-05-10T09:37:56;100701.25;;;17.73;41.62
43071;BME280;36278;47.952;21.714;2023-05-10T09:40:24;100693.88;;;17.75;41.94
43071;BME280;36278;47.952;21.714;2023-05-10T09:45:18;100691.66;;;18.32;40.76
43071;BME280;36278;47.952;21.714;2023-05-10T09:47:45;100693.78;;;18.46;38.15
43071;BME280;36278;47.952;21.714;2023-05-10T09:50:11;100685.13;;;18.27;38.51
43071;BME280;36278;47.952;21.714;2023-05-10T09:52:51;100687.25;;;18.23;38.83
43071;BME280;36278;47.952;21.714;2023-05-10T09:55:19;100691.66;;;17.88;42.01
43071;BME280;36278;47.952;21.714;2023-05-10T09:57:46;100683.28;;;18.27;40.99
43071;BME280;36278;47.952;21.714;2023-05-10T10:00:18;100666.66;;;18.49;41.04
43071;BME280;36278;47.952;21.714;2023-05-10T10:02:54;100675.84;;;18.73;41.97
43071;BME280;36278;47.952;21.714;2023-05-10T10:05:20;100673.19;;;18.81;40.51
43071;BME280;36278;47.952;21.714;2023-05-10T10:07:45;100667.00;;;18.55;40.13
43071;BME280;36278;47.952;21.714;2023-05-10T10:10:12;100666.22;;;18.36;40.99
43071;BME280;36278;47.952;21.714;2023-05-10T10:12:39;100662.50;;;18.29;40.74
43071;BME280;36278;47.952;21.714;2023-05-10T10:15:07;100651.13;;;18.35;39.88
43071;BME280;36278;47.952;21.714;2023-05-10T10:17:35;100655.81;;;18.93;40.05
43071;BME280;36278;47.952;21.714;2023-05-10T10:20:02;100661.81;;;18.87;39.21
43071;BME280;36278;47.952;21.714;2023-05-10T10:22:28;100645.19;;;18.75;39.16
43071;BME280;36278;47.952;21.714;2023-05-10T10:24:54;100645.66;;;18.71;39.63
43071;BME280;36278;47.952;21.714;2023-05-10T10:30:28;100650.84;;;18.46;39.93
43071;BME280;36278;47.952;21.714;2023-05-10T10:36:02;100653.41;;;18.74;39.33
43071;BME280;36278;47.952;21.714;2023-05-10T10:41:33;100625.44;;;18.93;38.08
43071;BME280;36278;47.952;21.714;2023-05-10T10:54:40;100619.69;;;19.54;36.40
43071;BME280;36278;47.952;21.714;2023-05-10T10:57:13;100624.38;;;19.36;37.33
43071;BME280;36278;47.952;21.714;2023-05-10T10:59:43;100616.47;;;19.18;37.75
43071;BME280;36278;47.952;21.714;2023-05-10T11:02:33;100616.63;;;19.09;37.05
43071;BME280;36278;47.952;21.714;2023-05-10T11:04:59;100611.34;;;19.57;36.89
43071;BME280;36278;47.952;21.714;2023-05-10T11:07:26;100612.13;;;19.25;37.18
43071;BME280;36278;47.952;21.714;2023-05-10T11:09:52;100618.84;;;18.79;39.29
43071;BME280;36278;47.952;21.714;2023-05-10T11:12:18;100618.69;;;18.81;37.67
43071;BME280;36278;47.952;21.714;2023-05-10T11:14:49;100610.31;;;18.84;37.06
43071;BME280;36278;47.952;21.714;2023-05-10T11:17:27;100613.63;;;18.69;37.87
43071;BME280;36278;47.952;21.714;2023-05-10T11:20:09;100618.97;;;18.69;37.51
43071;BME280;36278;47.952;21.714;2023-05-10T11:22:54;100605.97;;;19.57;36.96
43071;BME280;36278;47.952;21.714;2023-05-10T11:25:27;100612.31;;;19.32;36.18
43071;BME280;36278;47.952;21.714;2023-05-10T11:27:53;100608.88;;;19.05;37.30
43071;BME280;36278;47.952;21.714;2023-05-10T11:30:19;100606.84;;;18.99;37.84
43071;BME280;36278;47.952;21.714;2023-05-10T11:32:45;100611.88;;;18.94;37.18
43071;BME280;36278;47.952;21.714;2023-05-10T11:35:12;100608.81;;;18.89;37.57
43071;BME280;36278;47.952;21.714;2023-05-10T11:37:41;100612.47;;;18.80;37.67
43071;BME280;36278;47.952;21.714;2023-05-10T11:40:09;100605.84;;;18.58;37.43
43071;BME280;36278;47.952;21.714;2023-05-10T11:42:38;100595.44;;;18.63;37.67
43071;BME280;36278;47.952;21.714;2023-05-10T11:45:04;100600.03;;;18.71;37.25
43071;BME280;36278;47.952;21.714;2023-05-10T11:47:31;100600.25;;;18.86;36.67
43071;BME280;36278;47.952;21.714;2023-05-10T11:49:57;100596.94;;;18.92;37.47
43071;BME280;36278;47.952;21.714;2023-05-10T11:52:23;100597.69;;;19.26;36.42
43071;BME280;36278;47.952;21.714;2023-05-10T11:54:53;100589.41;;;20.81;33.52
43071;BME280;36278;47.952;21.714;2023-05-10T11:57:19;100594.81;;;20.81;35.19
43071;BME280;36278;47.952;21.714;2023-05-10T11:59:53;100585.66;;;20.51;34.94
43071;BME280;36278;47.952;21.714;2023-05-10T12:02:19;100582.63;;;21.16;32.93
43071;BME280;36278;47.952;21.714;2023-05-10T12:04:45;100577.50;;;22.13;31.57
43071;BME280;36278;47.952;21.714;2023-05-10T12:07:11;100586.22;;;22.00;32.40
43071;BME280;36278;47.952;21.714;2023-05-10T12:09:36;100591.47;;;22.17;32.05
43071;BME280;36278;47.952;21.714;2023-05-10T12:12:02;100574.97;;;23.21;30.45
43071;BME280;36278;47.952;21.714;2023-05-10T12:14:28;100586.91;;;22.91;30.93
43071;BME280;36278;47.952;21.714;2023-05-10T12:16:58;100582.63;;;21.70;31.88
43071;BME280;36278;47.952;21.714;2023-05-10T12:19:24;100580.22;;;21.90;31.32
43071;BME280;36278;47.952;21.714;2023-05-10T12:21:49;100570.81;;;21.48;32.08
43071;BME280;36278;47.952;21.714;2023-05-10T12:24:15;100582.03;;;21.06;32.51
43071;BME280;36278;47.952;21.714;2023-05-10T12:26:47;100585.53;;;20.84;33.49
43071;BME280;36278;47.952;21.714;2023-05-10T12:29:14;100582.84;;;20.45;34.03
43071;BME280;36278;47.952;21.714;2023-05-10T12:31:51;100579.34;;;20.20;33.96
43071;BME280;36278;47.952;21.714;2023-05-10T12:34:34;100579.03;;;20.14;33.35
43071;BME280;36278;47.952;21.714;2023-05-10T12:37:01;100580.06;;;20.13;33.72
43071;BME280;36278;47.952;21.714;2023-05-10T12:39:42;100574.50;;;20.07;33.93
43071;BME280;36278;47.952;21.714;2023-05-10T12:42:09;100569.88;;;20.48;33.06
43071;BME280;36278;47.952;21.714;2023-05-10T12:44:35;100561.81;;;20.48;32.83
43071;BME280;36278;47.952;21.714;2023-05-10T12:47:00;100552.78;;;21.87;32.17
43071;BME280;36278;47.952;21.714;2023-05-10T12:49:26;100547.25;;;23.84;29.68
43071;BME280;36278;47.952;21.714;2023-05-10T12:51:52;100546.06;;;25.10;27.39
43071;BME280;36278;47.952;21.714;2023-05-10T12:54:18;100537.13;;;25.95;26.24
43071;BME280;36278;47.952;21.714;2023-05-10T12:56:45;100534.63;;;25.94;26.39
43071;BME280;36278;47.952;21.714;2023-05-10T12:59:10;100538.41;;;23.47;29.87
43071;BME280;36278;47.952;21.714;2023-05-10T13:01:36;100538.72;;;22.94;30.49
43071;BME280;36278;47.952;21.714;2023-05-10T13:04:01;100530.50;;;22.37;29.89
43071;BME280;36278;47.952;21.714;2023-05-10T13:06:27;100530.50;;;21.55;31.25
43071;BME280;36278;47.952;21.714;2023-05-10T13:08:53;100531.56;;;21.00;31.98
43071;BME280;36278;47.952;21.714;2023-05-10T13:11:19;100531.84;;;20.82;32.26
43071;BME280;36278;47.952;21.714;2023-05-10T13:13:45;100531.06;;;20.74;31.94
43071;BME280;36278;47.952;21.714;2023-05-10T13:16:10;100528.41;;;20.96;31.54
43071;BME280;36278;47.952;21.714;2023-05-10T13:18:36;100511.78;;;22.06;31.05
43071;BME280;36278;47.952;21.714;2023-05-10T13:21:02;100522.59;;;22.35;31.18